createdAt,value
2022-10-07T00:01:10.505Z,9.17
2022-10-07T00:03:37.307Z,9.00
2022-10-07T00:06:18.179Z,9.05
2022-10-07T00:08:47.332Z,8.99
2022-10-07T00:11:17.768Z,8.98
2022-10-07T00:13:46.209Z,8.96
2022-10-07T00:16:18.212Z,8.89
2022-10-07T00:18:45.208Z,8.89
2022-10-07T00:21:14.060Z,8.80
2022-10-07T00:23:44.724Z,8.91
2022-10-07T00:26:13.867Z,9.01
2022-10-07T00:28:40.651Z,8.88
2022-10-07T00:31:09.922Z,8.85
2022-10-07T00:33:38.850Z,8.87
2022-10-07T00:36:16.795Z,8.77
2022-10-07T00:38:43.499Z,8.72
2022-10-07T00:41:17.838Z,8.81
2022-10-07T00:43:44.961Z,8.63
2022-10-07T00:46:21.701Z,8.46
2022-10-07T00:48:48.536Z,8.52
2022-10-07T00:51:17.215Z,8.53
2022-10-07T00:53:46.638Z,8.57
2022-10-07T00:56:14.339Z,8.63
2022-10-07T00:58:42.400Z,8.57
2022-10-07T01:01:09.507Z,8.51
2022-10-07T01:03:37.468Z,8.54
2022-10-07T01:06:05.206Z,8.55
2022-10-07T01:08:32.291Z,8.46
2022-10-07T01:11:17.959Z,8.46
2022-10-07T01:14:11.278Z,8.47
2022-10-07T01:16:47.409Z,8.39
2022-10-07T01:19:26.109Z,8.43
2022-10-07T01:22:08.230Z,8.45
2022-10-07T01:24:46.509Z,8.42
2022-10-07T01:27:21.868Z,8.36
2022-10-07T01:29:57.740Z,8.30
2022-10-07T01:32:48.878Z,8.25
2022-10-07T01:35:18.642Z,8.27
2022-10-07T01:37:48.832Z,8.26
2022-10-07T01:40:23.029Z,8.27
2022-10-07T01:42:51.989Z,8.29
2022-10-07T01:45:21.569Z,8.20
2022-10-07T01:47:49.241Z,8.25
2022-10-07T01:50:18.202Z,8.23
2022-10-07T01:53:12.611Z,8.28
2022-10-07T01:55:51.607Z,8.29
2022-10-07T01:58:40.139Z,8.22
2022-10-07T02:01:24.064Z,8.28
2022-10-07T02:04:09.657Z,8.26
2022-10-07T02:06:39.402Z,8.37
2022-10-07T02:09:36.821Z,8.30
2022-10-07T02:12:32.490Z,8.14
2022-10-07T02:15:06.331Z,8.03
2022-10-07T02:17:36.320Z,8.15
2022-10-07T02:20:05.079Z,8.05
2022-10-07T02:22:32.039Z,7.96
2022-10-07T02:25:00.013Z,7.92
2022-10-07T02:27:29.780Z,8.04
2022-10-07T02:30:02.130Z,8.10
2022-10-07T02:32:30.800Z,8.15
2022-10-07T02:35:05.393Z,8.10
2022-10-07T02:37:35.391Z,8.23
2022-10-07T02:40:02.761Z,8.24
2022-10-07T02:42:54.323Z,8.27
2022-10-07T02:45:37.381Z,8.19
2022-10-07T02:48:15.182Z,8.24
2022-10-07T02:50:44.251Z,8.16
2022-10-07T02:53:13.142Z,8.23
2022-10-07T02:55:40.780Z,8.30
2022-10-07T02:58:09.410Z,8.20
2022-10-07T03:00:37.638Z,8.09
2022-10-07T03:03:05.186Z,8.14
2022-10-07T03:05:33.868Z,8.03
2022-10-07T03:08:02.781Z,8.08
2022-10-07T03:10:29.631Z,7.97
2022-10-07T03:12:56.612Z,7.85
2022-10-07T03:15:23.621Z,7.92
2022-10-07T03:17:50.313Z,7.88
2022-10-07T03:20:17.250Z,7.89
2022-10-07T03:22:44.655Z,8.00
2022-10-07T03:25:11.919Z,7.85
2022-10-07T03:27:39.688Z,7.88
2022-10-07T03:30:07.111Z,7.84
2022-10-07T03:32:34.222Z,7.90
2022-10-07T03:35:01.039Z,7.86
2022-10-07T03:37:29.904Z,7.76
2022-10-07T03:39:56.601Z,7.63
2022-10-07T03:42:24.217Z,7.58
2022-10-07T03:44:50.929Z,7.38
2022-10-07T03:47:17.691Z,7.59
2022-10-07T03:49:44.948Z,7.60
2022-10-07T03:52:11.890Z,7.64
2022-10-07T03:54:39.098Z,7.59
2022-10-07T03:57:28.868Z,7.72
2022-10-07T03:59:55.579Z,7.63
2022-10-07T04:02:23.609Z,7.72
2022-10-07T04:04:53.387Z,7.67
2022-10-07T04:07:22.209Z,7.72
2022-10-07T04:09:49.002Z,7.60
2022-10-07T04:12:15.814Z,7.48
2022-10-07T04:14:42.521Z,7.42
2022-10-07T04:17:09.275Z,7.38
2022-10-07T04:19:36.019Z,7.36
2022-10-07T04:22:08.271Z,7.15
2022-10-07T04:24:35.367Z,7.32
2022-10-07T04:27:04.267Z,7.43
2022-10-07T04:29:35.436Z,7.42
2022-10-07T04:32:04.816Z,7.37
2022-10-07T04:34:31.453Z,7.39
2022-10-07T04:36:59.099Z,7.29
2022-10-07T04:39:42.817Z,7.40
2022-10-07T04:42:32.315Z,7.30
2022-10-07T04:44:59.001Z,7.29
2022-10-07T04:47:25.671Z,7.12
2022-10-07T04:49:53.759Z,7.34
2022-10-07T04:52:20.981Z,7.09
2022-10-07T04:54:47.624Z,7.26
2022-10-07T04:57:14.247Z,7.07
2022-10-07T04:59:43.061Z,7.17
2022-10-07T05:02:09.989Z,6.97
2022-10-07T05:04:37.137Z,7.05
2022-10-07T05:07:04.382Z,6.85
2022-10-07T05:09:31.194Z,6.94
2022-10-07T05:11:57.850Z,6.67
2022-10-07T05:14:24.506Z,6.79
2022-10-07T05:16:51.827Z,6.84
2022-10-07T05:19:19.293Z,6.73
2022-10-07T05:21:48.976Z,7.01
2022-10-07T05:24:15.650Z,7.05
2022-10-07T05:26:42.468Z,6.92
2022-10-07T05:29:09.608Z,7.04
2022-10-07T05:31:36.399Z,7.16
2022-10-07T05:34:03.190Z,7.11
2022-10-07T05:36:30.019Z,7.02
2022-10-07T05:38:59.785Z,6.97
2022-10-07T05:41:28.453Z,6.92
2022-10-07T05:43:55.293Z,7.06
2022-10-07T05:46:23.737Z,7.22
2022-10-07T05:48:52.474Z,7.02
2022-10-07T05:51:23.536Z,6.88
2022-10-07T05:53:54.283Z,6.80
2022-10-07T05:56:24.235Z,7.12
2022-10-07T05:58:52.634Z,7.32
2022-10-07T06:01:22.301Z,7.18
2022-10-07T06:03:54.333Z,7.39
2022-10-07T06:06:21.601Z,7.54
2022-10-07T06:08:48.705Z,7.73
2022-10-07T06:11:34.987Z,7.89
2022-10-07T06:14:02.077Z,7.85
2022-10-07T06:16:29.263Z,7.85
2022-10-07T06:18:56.525Z,7.86
2022-10-07T06:21:28.053Z,7.88
2022-10-07T06:23:56.233Z,7.87
2022-10-07T06:26:23.630Z,7.95
2022-10-07T06:28:50.636Z,8.34
2022-10-07T06:31:22.640Z,8.68
2022-10-07T06:33:50.315Z,8.82
2022-10-07T06:36:17.657Z,8.88
2022-10-07T06:38:48.589Z,8.85
2022-10-07T06:41:16.166Z,8.81
2022-10-07T06:43:43.292Z,8.39
2022-10-07T06:46:17.649Z,8.33
2022-10-07T06:48:46.035Z,8.70
2022-10-07T06:51:17.033Z,8.63
2022-10-07T06:53:44.234Z,8.72
2022-10-07T06:56:12.678Z,9.14
2022-10-07T06:58:39.446Z,9.66
2022-10-07T07:01:06.664Z,9.74
2022-10-07T07:03:33.465Z,9.89
2022-10-07T07:06:00.295Z,9.99
2022-10-07T07:08:29.203Z,10.29
2022-10-07T07:10:56.473Z,10.71
2022-10-07T07:13:23.322Z,10.43
2022-10-07T07:16:00.214Z,10.53
2022-10-07T07:18:27.006Z,10.64
2022-10-07T07:20:53.837Z,10.61
2022-10-07T07:23:20.533Z,10.81
2022-10-07T07:25:47.227Z,10.87
2022-10-07T07:28:15.605Z,11.30
2022-10-07T07:30:42.669Z,11.76
2022-10-07T07:33:09.596Z,11.82
2022-10-07T07:35:41.497Z,12.13
2022-10-07T07:38:08.839Z,12.07
2022-10-07T07:40:39.726Z,11.74
2022-10-07T07:43:07.304Z,12.08
2022-10-07T07:45:37.245Z,12.53
2022-10-07T07:48:04.439Z,12.35
2022-10-07T07:50:31.236Z,12.54
2022-10-07T07:53:00.272Z,12.86
2022-10-07T07:55:27.055Z,12.65
2022-10-07T07:57:53.967Z,12.97
2022-10-07T08:00:20.760Z,13.37
2022-10-07T08:02:47.705Z,13.64
2022-10-07T08:05:14.463Z,13.55
2022-10-07T08:07:41.278Z,14.31
2022-10-07T08:10:08.493Z,14.66
2022-10-07T08:12:35.167Z,14.70
2022-10-07T08:15:01.985Z,14.12
2022-10-07T08:17:28.722Z,14.35
2022-10-07T08:19:56.276Z,14.32
2022-10-07T08:22:23.057Z,14.19
2022-10-07T08:24:49.788Z,14.35
2022-10-07T08:27:16.540Z,15.38
2022-10-07T08:29:43.265Z,16.09
2022-10-07T08:32:09.966Z,16.13
2022-10-07T08:34:36.797Z,16.10
2022-10-07T08:37:03.798Z,16.18
2022-10-07T08:39:31.359Z,16.03
2022-10-07T08:42:23.522Z,16.27
2022-10-07T08:44:50.890Z,17.29
2022-10-07T08:47:44.128Z,17.78
2022-10-07T08:50:19.160Z,17.43
2022-10-07T08:52:51.193Z,17.39
2022-10-07T08:55:39.743Z,18.12
2022-10-07T08:58:21.233Z,17.93
2022-10-07T09:00:55.145Z,18.75
2022-10-07T09:03:51.733Z,18.03
2022-10-07T09:06:28.594Z,18.17
2022-10-07T09:09:18.018Z,18.55
2022-10-07T09:11:47.046Z,18.67
2022-10-07T09:14:32.466Z,18.89
2022-10-07T09:17:14.556Z,18.50
2022-10-07T09:19:47.451Z,18.57
2022-10-07T09:22:23.780Z,19.15
2022-10-07T09:24:56.584Z,19.49
2022-10-07T09:27:23.405Z,19.81
2022-10-07T09:29:51.525Z,19.48
2022-10-07T09:32:19.254Z,19.51
2022-10-07T09:34:47.389Z,20.20
2022-10-07T09:37:26.136Z,20.32
2022-10-07T09:39:54.675Z,20.35
2022-10-07T09:42:29.974Z,20.35
2022-10-07T09:44:59.346Z,20.78
2022-10-07T09:47:29.327Z,20.37
2022-10-07T09:49:59.873Z,21.25
2022-10-07T09:52:31.864Z,21.18
2022-10-07T09:55:31.775Z,21.41
2022-10-07T09:58:03.253Z,21.35
2022-10-07T10:00:30.783Z,21.97
2022-10-07T10:03:07.814Z,22.32
2022-10-07T10:05:52.963Z,22.20
2022-10-07T10:08:42.758Z,21.89
2022-10-07T10:11:18.566Z,21.94
2022-10-07T10:13:45.660Z,22.59
2022-10-07T10:16:24.606Z,22.76
2022-10-07T10:19:04.273Z,23.04
2022-10-07T10:21:41.178Z,22.68
2022-10-07T10:24:12.825Z,22.59
2022-10-07T10:26:57.946Z,22.15
2022-10-07T10:29:24.656Z,22.59
2022-10-07T10:32:00.566Z,22.76
2022-10-07T10:34:36.436Z,23.36
2022-10-07T10:37:13.730Z,23.16
2022-10-07T10:40:08.813Z,23.13
2022-10-07T10:42:58.312Z,23.42
2022-10-07T10:45:34.426Z,23.59
2022-10-07T10:48:13.601Z,23.62
2022-10-07T10:50:57.946Z,23.34
2022-10-07T10:54:04.055Z,22.83
2022-10-07T10:56:54.258Z,23.29
2022-10-07T11:00:18.304Z,23.74
2022-10-07T11:03:08.050Z,23.65
2022-10-07T11:05:40.349Z,23.63
2022-10-07T11:08:35.710Z,24.04
2022-10-07T11:11:20.157Z,23.65
2022-10-07T11:14:00.497Z,24.09
2022-10-07T11:16:47.066Z,24.25
2022-10-07T11:19:24.166Z,24.07
2022-10-07T11:21:52.747Z,24.16
2022-10-07T11:24:56.977Z,23.58
2022-10-07T11:27:27.413Z,23.29
2022-10-07T11:29:58.717Z,23.39
2022-10-07T11:33:05.378Z,23.74
2022-10-07T11:35:34.996Z,24.00
2022-10-07T11:38:10.933Z,23.94
2022-10-07T11:40:46.706Z,24.09
2022-10-07T11:43:38.724Z,24.53
2022-10-07T11:46:30.176Z,24.39
2022-10-07T11:49:04.764Z,24.18
2022-10-07T11:51:35.924Z,24.22
2022-10-07T11:54:04.129Z,24.57
2022-10-07T11:56:37.846Z,24.09
2022-10-07T11:59:07.028Z,24.24
2022-10-07T12:01:36.812Z,24.58
2022-10-07T12:04:29.495Z,24.24
2022-10-07T12:07:33.306Z,24.36
2022-10-07T12:10:05.935Z,24.34
2022-10-07T12:12:45.551Z,24.43
2022-10-07T12:15:42.235Z,24.59
2022-10-07T12:18:10.523Z,24.49
2022-10-07T12:20:48.722Z,24.46
2022-10-07T12:23:18.586Z,24.64
2022-10-07T12:25:49.105Z,24.36
2022-10-07T12:28:19.288Z,24.57
2022-10-07T12:30:57.526Z,24.83
2022-10-07T12:33:52.597Z,24.90
2022-10-07T12:36:25.865Z,24.71
2022-10-07T12:38:59.366Z,24.91
2022-10-07T12:41:26.704Z,24.39
2022-10-07T12:44:00.643Z,24.83
2022-10-07T12:46:31.575Z,24.75
2022-10-07T12:49:27.489Z,24.92
2022-10-07T12:51:54.995Z,24.93
2022-10-07T12:54:54.546Z,24.85
2022-10-07T12:57:29.981Z,25.01
2022-10-07T12:59:59.617Z,25.03
2022-10-07T13:03:14.064Z,25.29
2022-10-07T13:06:02.322Z,25.30
2022-10-07T13:09:33.585Z,25.25
2022-10-07T13:12:13.386Z,25.13
2022-10-07T13:15:07.337Z,25.08
2022-10-07T13:17:55.789Z,25.00
2022-10-07T13:20:51.017Z,25.11
2022-10-07T13:23:24.585Z,24.73
2022-10-07T13:25:55.151Z,25.03
2022-10-07T13:28:24.171Z,25.13
2022-10-07T13:30:52.087Z,25.02
2022-10-07T13:33:24.013Z,25.09
2022-10-07T13:35:51.891Z,25.13
2022-10-07T13:38:25.977Z,25.00
2022-10-07T13:40:55.105Z,24.87
2022-10-07T13:43:23.797Z,25.03
2022-10-07T13:45:51.105Z,25.23
2022-10-07T13:48:29.527Z,24.61
2022-10-07T13:50:58.640Z,24.46
2022-10-07T13:53:29.367Z,24.87
2022-10-07T13:56:14.073Z,24.74
2022-10-07T13:58:41.027Z,24.83
2022-10-07T14:01:07.941Z,24.81
2022-10-07T14:03:34.826Z,24.62
2022-10-07T14:06:01.636Z,24.29
2022-10-07T14:08:29.380Z,24.16
2022-10-07T14:11:05.485Z,24.03
2022-10-07T14:13:32.719Z,24.09
2022-10-07T14:15:59.769Z,24.07
2022-10-07T14:18:29.850Z,23.77
2022-10-07T14:21:08.184Z,23.57
2022-10-07T14:23:36.287Z,23.47
2022-10-07T14:26:09.958Z,23.27
2022-10-07T14:28:41.324Z,22.94
2022-10-07T14:31:26.753Z,22.83
2022-10-07T14:34:35.474Z,22.92
2022-10-07T14:37:02.982Z,22.62
2022-10-07T14:39:39.344Z,22.17
2022-10-07T14:42:11.474Z,22.16
2022-10-07T14:44:38.403Z,21.96
2022-10-07T14:47:06.857Z,21.63
2022-10-07T14:49:33.596Z,21.59
2022-10-07T14:52:00.788Z,21.28
2022-10-07T14:54:27.856Z,21.04
2022-10-07T14:56:54.675Z,20.87
2022-10-07T14:59:23.476Z,20.74
2022-10-07T15:01:50.224Z,20.58
2022-10-07T15:04:17.197Z,20.20
2022-10-07T15:06:48.707Z,20.19
2022-10-07T15:09:18.571Z,20.10
2022-10-07T15:11:45.267Z,19.89
2022-10-07T15:14:12.203Z,19.77
2022-10-07T15:16:39.176Z,19.44
2022-10-07T15:19:06.016Z,19.32
2022-10-07T15:21:32.802Z,19.18
2022-10-07T15:24:01.807Z,18.81
2022-10-07T15:26:28.584Z,18.79
2022-10-07T15:28:57.381Z,18.83
2022-10-07T15:31:28.363Z,18.75
2022-10-07T15:33:58.082Z,18.57
2022-10-07T15:36:27.007Z,18.07
2022-10-07T15:38:53.765Z,18.33
2022-10-07T15:41:32.564Z,18.05
2022-10-07T15:44:01.137Z,18.11
2022-10-07T15:46:28.215Z,18.16
2022-10-07T15:48:56.533Z,18.00
2022-10-07T15:51:24.679Z,17.96
2022-10-07T15:53:51.806Z,17.84
2022-10-07T15:56:18.824Z,17.86
2022-10-07T15:58:45.972Z,17.83
2022-10-07T16:01:12.854Z,18.11
2022-10-07T16:03:44.196Z,17.80
2022-10-07T16:06:14.364Z,17.72
2022-10-07T16:08:41.204Z,17.67
2022-10-07T16:11:09.887Z,17.60
2022-10-07T16:13:37.796Z,17.73
2022-10-07T16:16:09.061Z,17.67
2022-10-07T16:18:40.666Z,17.44
2022-10-07T16:21:15.177Z,17.49
2022-10-07T16:23:47.846Z,17.11
2022-10-07T16:26:21.048Z,16.99
2022-10-07T16:29:08.308Z,17.10
2022-10-07T16:31:37.052Z,16.73
2022-10-07T16:34:04.352Z,16.63
2022-10-07T16:36:31.156Z,16.52
2022-10-07T16:39:03.513Z,16.58
2022-10-07T16:41:31.814Z,16.46
2022-10-07T16:43:59.944Z,16.34
2022-10-07T16:46:27.064Z,16.26
2022-10-07T16:48:54.264Z,16.36
2022-10-07T16:51:26.533Z,16.18
2022-10-07T16:53:55.684Z,16.40
2022-10-07T16:56:23.384Z,16.03
2022-10-07T16:58:57.957Z,16.03
2022-10-07T17:01:25.745Z,15.73
2022-10-07T17:03:54.306Z,15.57
2022-10-07T17:06:22.885Z,15.63
2022-10-07T17:08:49.656Z,15.62
2022-10-07T17:11:31.403Z,15.82
2022-10-07T17:14:07.183Z,15.85
2022-10-07T17:16:39.351Z,15.82
2022-10-07T17:19:06.947Z,15.68
2022-10-07T17:21:39.940Z,15.49
2022-10-07T17:24:06.824Z,15.25
2022-10-07T17:26:33.666Z,15.14
2022-10-07T17:29:09.939Z,15.13
2022-10-07T17:31:39.479Z,15.15
2022-10-07T17:34:07.244Z,15.17
2022-10-07T17:36:34.426Z,14.99
2022-10-07T17:39:01.665Z,15.03
2022-10-07T17:41:32.946Z,15.13
2022-10-07T17:44:01.206Z,15.26
2022-10-07T17:46:30.168Z,15.17
2022-10-07T17:48:59.234Z,15.21
2022-10-07T17:51:29.103Z,15.13
2022-10-07T17:53:56.722Z,15.20
2022-10-07T17:56:23.609Z,14.96
2022-10-07T17:58:50.882Z,14.88
2022-10-07T18:01:22.659Z,14.81
2022-10-07T18:03:55.007Z,14.88
2022-10-07T18:06:21.764Z,14.80
2022-10-07T18:08:48.650Z,14.72
2022-10-07T18:11:18.166Z,14.80
2022-10-07T18:14:03.626Z,14.68
2022-10-07T18:16:35.149Z,14.63
2022-10-07T18:19:02.337Z,14.54
2022-10-07T18:21:31.082Z,14.44
2022-10-07T18:23:58.177Z,14.45
2022-10-07T18:26:24.969Z,14.52
2022-10-07T18:28:51.803Z,14.59
2022-10-07T18:31:19.118Z,14.57
2022-10-07T18:33:46.349Z,14.51
2022-10-07T18:36:18.384Z,14.40
2022-10-07T18:38:45.526Z,14.34
2022-10-07T18:41:15.017Z,14.29
2022-10-07T18:43:42.618Z,14.25
2022-10-07T18:46:14.156Z,13.98
2022-10-07T18:48:42.484Z,13.97
2022-10-07T18:51:11.401Z,13.95
2022-10-07T18:53:39.927Z,13.92
2022-10-07T18:56:10.423Z,13.76
2022-10-07T18:58:42.376Z,13.75
2022-10-07T19:01:11.054Z,13.80
2022-10-07T19:03:37.944Z,13.77
2022-10-07T19:06:06.354Z,13.78
2022-10-07T19:08:33.721Z,13.57
2022-10-07T19:11:08.654Z,13.36
2022-10-07T19:13:51.984Z,13.51
2022-10-07T19:16:34.609Z,13.42
2022-10-07T19:19:07.191Z,13.44
2022-10-07T19:21:35.201Z,13.22
2022-10-07T19:24:02.857Z,13.26
2022-10-07T19:26:32.744Z,13.13
2022-10-07T19:28:59.897Z,13.09
2022-10-07T19:31:29.409Z,13.07
2022-10-07T19:34:02.375Z,12.84
2022-10-07T19:36:31.024Z,12.86
2022-10-07T19:38:58.629Z,12.52
2022-10-07T19:41:28.665Z,12.68
2022-10-07T19:43:55.996Z,12.58
2022-10-07T19:46:25.280Z,12.54
2022-10-07T19:48:57.077Z,12.44
2022-10-07T19:51:25.569Z,12.35
2022-10-07T19:53:52.374Z,12.50
2022-10-07T19:56:22.576Z,12.61
2022-10-07T19:58:51.682Z,12.33
2022-10-07T20:01:24.277Z,12.25
2022-10-07T20:04:02.424Z,12.38
2022-10-07T20:06:29.703Z,12.05
2022-10-07T20:08:57.064Z,12.14
2022-10-07T20:11:24.034Z,12.00
2022-10-07T20:13:51.945Z,12.00
2022-10-07T20:16:24.377Z,12.08
2022-10-07T20:18:58.631Z,11.90
2022-10-07T20:21:25.671Z,11.79
2022-10-07T20:23:54.012Z,11.80
2022-10-07T20:26:26.595Z,11.84
2022-10-07T20:28:56.238Z,11.78
2022-10-07T20:31:24.992Z,11.78
2022-10-07T20:33:56.562Z,11.96
2022-10-07T20:36:25.492Z,11.77
2022-10-07T20:39:19.431Z,11.43
2022-10-07T20:42:04.963Z,11.56
2022-10-07T20:44:32.064Z,11.69
2022-10-07T20:46:58.897Z,11.62
2022-10-07T20:49:28.652Z,11.47
2022-10-07T20:51:58.162Z,11.30
2022-10-07T20:54:26.404Z,11.26
2022-10-07T20:56:54.366Z,11.39
2022-10-07T20:59:21.437Z,11.32
2022-10-07T21:01:48.340Z,11.22
2022-10-07T21:04:15.733Z,11.15
2022-10-07T21:06:43.260Z,11.07
2022-10-07T21:09:10.947Z,11.08
2022-10-07T21:11:38.186Z,11.09
2022-10-07T21:14:05.051Z,10.91
2022-10-07T21:16:32.791Z,11.01
2022-10-07T21:18:59.436Z,10.96
2022-10-07T21:21:26.141Z,11.02
2022-10-07T21:23:53.074Z,10.99
2022-10-07T21:26:20.360Z,10.94
2022-10-07T21:28:50.676Z,10.84
2022-10-07T21:31:19.105Z,10.81
2022-10-07T21:33:48.146Z,10.96
2022-10-07T21:36:17.689Z,10.94
2022-10-07T21:38:45.610Z,10.80
2022-10-07T21:41:18.633Z,10.83
2022-10-07T21:43:51.250Z,10.83
2022-10-07T21:46:18.532Z,10.67
2022-10-07T21:48:45.343Z,10.64
2022-10-07T21:51:12.092Z,10.72
2022-10-07T21:53:38.884Z,10.58
2022-10-07T21:56:07.114Z,10.56
2022-10-07T21:58:35.419Z,10.44
2022-10-07T22:01:06.680Z,10.33
2022-10-07T22:03:34.293Z,10.35
2022-10-07T22:06:05.376Z,10.37
2022-10-07T22:08:35.848Z,10.39
2022-10-07T22:11:03.260Z,10.33
2022-10-07T22:13:30.473Z,10.39
2022-10-07T22:16:01.133Z,10.38
2022-10-07T22:18:33.288Z,10.34
2022-10-07T22:21:01.160Z,10.14
2022-10-07T22:23:27.801Z,10.21
2022-10-07T22:26:01.180Z,10.05
2022-10-07T22:28:27.904Z,10.11
2022-10-07T22:30:54.546Z,10.05
2022-10-07T22:33:21.186Z,10.07
2022-10-07T22:35:47.775Z,10.05
2022-10-07T22:38:14.388Z,9.95
2022-10-07T22:40:41.115Z,9.99
2022-10-07T22:43:07.667Z,9.86
2022-10-07T22:45:36.386Z,9.74
2022-10-07T22:48:04.406Z,9.81
2022-10-07T22:50:32.223Z,9.73
2022-10-07T22:52:58.834Z,9.84
2022-10-07T22:55:26.173Z,9.67
2022-10-07T22:57:53.316Z,9.50
2022-10-07T23:00:21.123Z,9.63
2022-10-07T23:02:48.038Z,9.64
2022-10-07T23:05:15.107Z,9.72
2022-10-07T23:07:41.777Z,9.76
2022-10-07T23:10:08.974Z,9.70
2022-10-07T23:12:35.625Z,9.60
2022-10-07T23:15:03.151Z,9.58
2022-10-07T23:17:30.472Z,9.58
2022-10-07T23:19:57.225Z,9.53
2022-10-07T23:22:23.832Z,9.53
2022-10-07T23:24:52.525Z,9.46
2022-10-07T23:27:19.325Z,9.37
2022-10-07T23:29:46.024Z,9.23
2022-10-07T23:32:12.693Z,9.22
2022-10-07T23:34:39.447Z,9.27
2022-10-07T23:37:06.030Z,9.10
2022-10-07T23:39:33.571Z,9.12
2022-10-07T23:42:00.299Z,9.19
2022-10-07T23:44:27.213Z,9.22
2022-10-07T23:46:53.919Z,9.23
2022-10-07T23:49:20.526Z,9.19
2022-10-07T23:51:47.567Z,9.21
2022-10-07T23:54:14.385Z,9.04
2022-10-07T23:56:41.145Z,9.09
2022-10-07T23:59:08.071Z,9.12
